Time;durP1;ratioP1;P1;durP2;ratioP2;P2;SDS_P1;SDS_P2;PMS_P1;PMS_P2;Temp;Humidity;BMP_temperature;BMP_pressure;BME280_temperature;BME280_humidity;BME280_pressure;Samples;Min_cycle;Max_cycle;Signal;HPM_P1;HPM_P2
2023/01/13 00:01:54;;;;;;;3.17;1.00;;;;;;;;;;5052028;28;20060;-64
2023/01/13 00:04:24;;;;;;;2.45;0.60;;;;;;;;;;5031637;28;20497;-64
2023/01/13 00:06:54;;;;;;;0.98;0.60;;;;;;;;;;5031763;28;20436;-64
2023/01/13 00:09:24;;;;;;;1.42;0.65;;;;;;;;;;5028199;28;20520;-64
2023/01/13 00:11:55;;;;;;;1.55;0.90;;;;;;;;;;4956723;28;20061;-64
2023/01/13 00:14:28;;;;;;;2.28;0.82;;;;;;;;;;4979863;28;20211;-64
2023/01/13 00:16:58;;;;;;;1.15;0.80;;;;;;;;;;4964424;28;20042;-64
2023/01/13 00:19:29;;;;;;;1.30;0.77;;;;;;;;;;4943458;29;20066;-64
2023/01/13 00:21:59;;;;;;;1.80;0.75;;;;;;;;;;4943277;29;20054;-64
2023/01/13 00:24:29;;;;;;;1.52;0.57;;;;;;;;;;4934165;29;20064;-64
2023/01/13 00:26:59;;;;;;;2.05;1.05;;;;;;;;;;4883812;29;20195;-64
2023/01/13 00:29:29;;;;;;;1.13;0.60;;;;;;;;;;4889854;29;20049;-64
2023/01/13 00:32:20;;;;;;;2.92;0.65;;;;;;;;;;4875556;29;20065;-64
2023/01/13 00:34:51;;;;;;;3.83;0.77;;;;;;;;;;4847314;29;20053;-64
2023/01/13 00:37:22;;;;;;;3.38;0.70;;;;;;;;;;4835416;29;20067;-65
2023/01/13 00:39:52;;;;;;;1.02;0.50;;;;;;;;;;4891133;29;20523;-64
2023/01/13 00:45:12;;;;;;;4.15;0.95;;;;;;;;;;4896794;29;20071;-64
2023/01/13 00:47:42;;;;;;;2.60;0.90;;;;;;;;;;4921784;29;20504;-64
2023/01/13 00:50:12;;;;;;;1.50;0.90;;;;;;;;;;4926175;29;20060;-64
2023/01/13 00:52:42;;;;;;;2.92;0.90;;;;;;;;;;4888737;29;20063;-64
2023/01/13 00:55:13;;;;;;;0.98;0.55;;;;;;;;;;4934625;29;20059;-64
2023/01/13 00:57:43;;;;;;;1.35;0.60;;;;;;;;;;4966583;28;20047;-64
2023/01/13 01:00:14;;;;;;;1.23;0.60;;;;;;;;;;4992020;28;20077;-64
2023/01/13 01:02:45;;;;;;;1.58;0.60;;;;;;;;;;4990197;28;20054;-64
2023/01/13 01:05:15;;;;;;;1.13;0.70;;;;;;;;;;4992553;28;20054;-64
2023/01/13 01:07:45;;;;;;;1.33;0.70;;;;;;;;;;4992010;28;20058;-65
2023/01/13 01:10:15;;;;;;;2.28;0.63;;;;;;;;;;5016858;28;20069;-64
2023/01/13 01:12:45;;;;;;;1.95;1.23;;;;;;;;;;5031463;28;20072;-64
2023/01/13 01:15:15;;;;;;;1.70;0.68;;;;;;;;;;5031671;28;20068;-64
2023/01/13 01:17:45;;;;;;;1.50;0.70;;;;;;;;;;5031296;28;20433;-64
2023/01/13 01:20:15;;;;;;;1.42;0.60;;;;;;;;;;5014960;28;20053;-65
2023/01/13 01:22:45;;;;;;;2.45;0.88;;;;;;;;;;5014747;28;20053;-64
2023/01/13 01:25:15;;;;;;;2.53;0.63;;;;;;;;;;5027176;28;20073;-63
2023/01/13 01:27:45;;;;;;;1.25;0.60;;;;;;;;;;5054528;28;20520;-66
2023/01/13 01:30:15;;;;;;;1.65;0.77;;;;;;;;;;5041357;28;20544;-65
2023/01/13 01:32:45;;;;;;;1.45;0.70;;;;;;;;;;5054124;28;20528;-62
2023/01/13 01:35:15;;;;;;;1.48;0.73;;;;;;;;;;5051061;28;20060;-63
2023/01/13 01:37:45;;;;;;;1.70;0.77;;;;;;;;;;5050784;28;20057;-62
2023/01/13 01:40:15;;;;;;;1.58;0.77;;;;;;;;;;5007566;28;20067;-62
2023/01/13 01:45:35;;;;;;;2.40;0.80;;;;;;;;;;4980783;28;20068;-64
2023/01/13 01:48:06;;;;;;;3.15;1.08;;;;;;;;;;5066924;28;20176;-64
2023/01/13 01:50:38;;;;;;;2.03;0.85;;;;;;;;;;5021380;28;20049;-64
2023/01/13 01:53:14;;;;;;;2.00;0.63;;;;;;;;;;5020500;28;20052;-64
2023/01/13 01:55:44;;;;;;;3.92;0.80;;;;;;;;;;5070676;28;20087;-64
2023/01/13 01:58:26;;;;;;;2.08;0.70;;;;;;;;;;4997242;28;20041;-64
2023/01/13 02:00:57;;;;;;;2.30;0.80;;;;;;;;;;5030271;28;20057;-64
2023/01/13 02:03:27;;;;;;;3.35;0.60;;;;;;;;;;5030692;28;20413;-65
2023/01/13 02:05:56;;;;;;;1.10;0.70;;;;;;;;;;4950068;28;20452;-64
2023/01/13 02:08:27;;;;;;;3.00;0.80;;;;;;;;;;4978086;28;20409;-64
2023/01/13 02:10:57;;;;;;;3.03;0.77;;;;;;;;;;5010571;28;20065;-64
2023/01/13 02:13:27;;;;;;;2.40;1.10;;;;;;;;;;4994604;28;20042;-64
2023/01/13 02:16:18;;;;;;;2.05;0.85;;;;;;;;;;5010625;28;20438;-64
2023/01/13 02:19:14;;;;;;;2.10;0.70;;;;;;;;;;4994317;28;20050;-64
2023/01/13 02:21:46;;;;;;;1.40;0.90;;;;;;;;;;5010172;28;20057;-64
2023/01/13 02:24:59;;;;;;;2.13;0.90;;;;;;;;;;4978002;28;20069;-64
2023/01/13 02:28:02;;;;;;;1.27;0.60;;;;;;;;;;5010297;28;20501;-64
2023/01/13 02:33:41;;;;;;;1.17;0.75;;;;;;;;;;5010207;28;20061;-64
2023/01/13 02:36:38;;;;;;;3.58;0.60;;;;;;;;;;5038155;28;20055;-65
2023/01/13 02:39:26;;;;;;;2.17;0.80;;;;;;;;;;5072321;28;20044;-64
2023/01/13 02:45:25;;;;;;;4.38;1.17;;;;;;;;;;5052858;28;20059;-64
2023/01/13 02:47:58;;;;;;;1.70;0.70;;;;;;;;;;4993273;28;20050;-64
2023/01/13 02:50:39;;;;;;;4.15;0.90;;;;;;;;;;4977109;28;20058;-64
2023/01/13 02:53:25;;;;;;;2.05;0.80;;;;;;;;;;4951038;28;20054;-64
2023/01/13 02:55:58;;;;;;;1.45;0.77;;;;;;;;;;4950478;28;20059;-65
2023/01/13 02:58:31;;;;;;;3.55;0.70;;;;;;;;;;4951353;28;20055;-65
2023/01/13 03:01:01;;;;;;;2.92;0.90;;;;;;;;;;4951247;28;20103;-64
2023/01/13 03:03:32;;;;;;;2.33;0.80;;;;;;;;;;4951198;28;20051;-64
2023/01/13 03:06:28;;;;;;;7.75;0.90;;;;;;;;;;4951275;28;20062;-64
2023/01/13 03:09:07;;;;;;;3.90;0.80;;;;;;;;;;4951339;28;20055;-64
2023/01/13 03:11:52;;;;;;;2.83;0.90;;;;;;;;;;4951338;28;20062;-64
2023/01/13 03:14:49;;;;;;;2.65;0.70;;;;;;;;;;4951428;28;20408;-64
2023/01/13 03:17:38;;;;;;;3.42;0.80;;;;;;;;;;4919101;28;20535;-64
2023/01/13 03:20:22;;;;;;;2.50;0.60;;;;;;;;;;4919221;28;20060;-63
2023/01/13 03:23:13;;;;;;;3.88;1.33;;;;;;;;;;4951132;28;20081;-63
2023/01/13 03:25:51;;;;;;;;;;;;;;;;;;4966714;28;20541;-63
2023/01/13 03:28:45;;;;;;;2.13;0.85;;;;;;;;;;5009287;28;19922;-63
2023/01/13 03:31:21;;;;;;;5.25;1.10;;;;;;;;;;5038711;28;20053;-63
2023/01/13 03:34:07;;;;;;;1.42;0.70;;;;;;;;;;5032653;28;20059;-63
2023/01/13 03:36:40;;;;;;;2.55;0.73;;;;;;;;;;5028852;28;20053;-63
2023/01/13 03:39:16;;;;;;;1.45;0.77;;;;;;;;;;5028517;28;20204;-63
2023/01/13 03:41:56;;;;;;;0.98;0.60;;;;;;;;;;4995867;28;20080;-64
2023/01/13 03:44:32;;;;;;;2.78;0.85;;;;;;;;;;5028271;28;20049;-63
2023/01/13 03:47:26;;;;;;;5.75;1.25;;;;;;;;;;5028535;28;20061;-64
2023/01/13 03:50:00;;;;;;;2.25;0.88;;;;;;;;;;5028830;28;20057;-64
2023/01/13 03:52:35;;;;;;;2.60;0.77;;;;;;;;;;5008290;28;20065;-64
2023/01/13 03:55:19;;;;;;;3.33;1.10;;;;;;;;;;4959810;28;20046;-64
2023/01/13 03:58:09;;;;;;;2.88;0.80;;;;;;;;;;5008868;28;20057;-64
2023/01/13 04:01:17;;;;;;;2.40;0.70;;;;;;;;;;5008812;28;20061;-64
2023/01/13 04:03:59;;;;;;;2.20;1.13;;;;;;;;;;4950076;29;20214;-65
2023/01/13 04:06:42;;;;;;;3.03;0.75;;;;;;;;;;4950513;29;20062;-64
2023/01/13 04:09:30;;;;;;;1.15;0.60;;;;;;;;;;4953313;28;20051;-64
2023/01/13 04:15:23;;;;;;;6.78;0.80;;;;;;;;;;4937550;28;20069;-65
2023/01/13 04:17:54;;;;;;;1.58;0.77;;;;;;;;;;4969289;28;20063;-65
2023/01/13 04:20:24;;;;;;;2.30;0.70;;;;;;;;;;4969634;28;20094;-64
2023/01/13 04:22:54;;;;;;;1.38;0.70;;;;;;;;;;4936863;29;20058;-64
2023/01/13 04:25:24;;;;;;;3.72;1.10;;;;;;;;;;4950472;29;20047;-65
2023/01/13 04:27:55;;;;;;;2.30;1.05;;;;;;;;;;4950213;29;20059;-64
2023/01/13 04:30:24;;;;;;;3.75;0.93;;;;;;;;;;4961598;28;20555;-64
2023/01/13 04:32:55;;;;;;;8.15;1.00;;;;;;;;;;4952965;28;20057;-64
2023/01/13 04:35:25;;;;;;;4.28;1.35;;;;;;;;;;4969615;28;20065;-65
2023/01/13 04:37:55;;;;;;;3.20;1.23;;;;;;;;;;4985336;28;20131;-64
2023/01/13 04:40:25;;;;;;;5.10;1.50;;;;;;;;;;4992460;28;20053;-64
2023/01/13 04:42:55;;;;;;;3.05;1.50;;;;;;;;;;5050198;28;20050;-66
2023/01/13 04:45:25;;;;;;;3.10;1.17;;;;;;;;;;5050703;28;20059;-64
2023/01/13 04:47:55;;;;;;;1.58;1.02;;;;;;;;;;5049096;28;20041;-65
2023/01/13 04:50:26;;;;;;;6.22;1.17;;;;;;;;;;5050459;28;20052;-64
2023/01/13 04:52:56;;;;;;;2.83;0.90;;;;;;;;;;5050435;28;20053;-64
2023/01/13 04:55:27;;;;;;;1.63;1.08;;;;;;;;;;4983497;28;20424;-65
2023/01/13 04:58:08;;;;;;;2.20;0.95;;;;;;;;;;5050385;28;20045;-64
2023/01/13 05:00:38;;;;;;;1.48;0.88;;;;;;;;;;5050180;28;20053;-65
2023/01/13 05:03:08;;;;;;;6.15;1.63;;;;;;;;;;5031842;28;20618;-65
2023/01/13 05:05:38;;;;;;;2.22;0.93;;;;;;;;;;5014904;28;20715;-64
2023/01/13 05:08:08;;;;;;;2.85;1.10;;;;;;;;;;5031337;28;20061;-64
2023/01/13 05:10:38;;;;;;;2.40;1.13;;;;;;;;;;5050607;28;20055;-64
2023/01/13 05:18:48;;;;;;;2.10;0.88;;;;;;;;;;5052414;28;20049;-64
2023/01/13 05:26:57;;;;;;;7.75;1.25;;;;;;;;;;5067748;28;20053;-64
2023/01/13 05:29:26;;;;;;;3.47;0.93;;;;;;;;;;5053669;28;20044;-64
2023/01/13 05:31:56;;;;;;;6.05;1.23;;;;;;;;;;5034841;28;20091;-65
2023/01/13 05:34:26;;;;;;;3.92;0.93;;;;;;;;;;5052406;28;20059;-64
2023/01/13 05:36:56;;;;;;;4.68;1.20;;;;;;;;;;5052161;28;20443;-64
2023/01/13 05:43:18;;;;;;;4.07;0.80;;;;;;;;;;5053347;28;20049;-64
2023/01/13 05:45:08;;;;;;;2.42;0.98;;;;;;;;;;5053033;28;20048;-65
2023/01/13 05:47:38;;;;;;;2.10;1.00;;;;;;;;;;5052968;28;20041;-65
2023/01/13 05:50:09;;;;;;;2.47;0.93;;;;;;;;;;5050603;28;20045;-65
2023/01/13 05:52:40;;;;;;;5.38;1.13;;;;;;;;;;5001514;28;20049;-64
2023/01/13 05:55:11;;;;;;;2.22;0.98;;;;;;;;;;5050277;28;20060;-65
2023/01/13 05:57:41;;;;;;;2.90;0.77;;;;;;;;;;4985664;28;20052;-66
2023/01/13 06:00:12;;;;;;;2.58;1.40;;;;;;;;;;5017036;28;20520;-65
2023/01/13 06:02:42;;;;;;;2.17;1.08;;;;;;;;;;5050462;28;20079;-64
2023/01/13 06:05:12;;;;;;;2.25;1.25;;;;;;;;;;4974925;28;20061;-65
2023/01/13 06:07:41;;;;;;;2.65;1.10;;;;;;;;;;4991205;28;20234;-67
2023/01/13 06:10:11;;;;;;;4.70;1.50;;;;;;;;;;4971521;28;20581;-65
2023/01/13 06:12:42;;;;;;;2.47;1.13;;;;;;;;;;4939859;28;20062;-64
2023/01/13 06:15:12;;;;;;;1.60;1.00;;;;;;;;;;4971689;28;20090;-65
2023/01/13 06:17:42;;;;;;;5.47;1.20;;;;;;;;;;4955052;28;20059;-65
2023/01/13 06:20:13;;;;;;;3.55;0.90;;;;;;;;;;4970988;28;20491;-65
2023/01/13 06:22:47;;;;;;;3.90;1.23;;;;;;;;;;4971399;28;20058;-65
2023/01/13 06:25:54;;;;;;;2.00;1.02;;;;;;;;;;4971738;28;20050;-64
2023/01/13 06:28:24;;;;;;;3.03;1.23;;;;;;;;;;4960062;28;20054;-64
2023/01/13 06:30:59;;;;;;;6.97;1.40;;;;;;;;;;4934813;29;20170;-65
2023/01/13 06:33:36;;;;;;;3.67;1.00;;;;;;;;;;4951840;29;20415;-64
2023/01/13 06:36:15;;;;;;;2.28;1.25;;;;;;;;;;4951945;29;20460;-64
2023/01/13 06:38:49;;;;;;;3.55;0.93;;;;;;;;;;4952028;29;20051;-64
2023/01/13 06:43:13;;;;;;;5.35;1.45;;;;;;;;;;4970765;28;20403;-66
2023/01/13 06:44:11;;;;;;;2.05;1.00;;;;;;;;;;5010170;28;20522;-67
2023/01/13 06:46:41;;;;;;;4.28;1.10;;;;;;;;;;5011096;28;20062;-64
2023/01/13 06:49:11;;;;;;;3.75;0.95;;;;;;;;;;5033222;28;20075;-65
2023/01/13 06:51:40;;;;;;;3.90;1.02;;;;;;;;;;5009448;28;20057;-65
2023/01/13 06:54:10;;;;;;;5.32;1.10;;;;;;;;;;4992874;28;20058;-65
2023/01/13 06:56:40;;;;;;;6.03;1.02;;;;;;;;;;5010315;28;20065;-64
2023/01/13 06:59:10;;;;;;;2.75;1.10;;;;;;;;;;5009825;28;20065;-64
2023/01/13 07:01:40;;;;;;;2.42;1.10;;;;;;;;;;5009836;28;20066;-65
2023/01/13 07:04:10;;;;;;;1.70;1.08;;;;;;;;;;4961104;28;20062;-63
2023/01/13 07:06:40;;;;;;;2.72;1.10;;;;;;;;;;5009541;28;20076;-63
2023/01/13 07:09:11;;;;;;;2.92;1.05;;;;;;;;;;4993026;28;20053;-63
2023/01/13 07:11:41;;;;;;;5.10;1.15;;;;;;;;;;5009645;28;20046;-64
2023/01/13 07:16:59;;;;;;;2.47;1.08;;;;;;;;;;5009668;28;20506;-63
2023/01/13 07:19:29;;;;;;;3.03;1.20;;;;;;;;;;5023419;28;20061;-63
2023/01/13 07:21:59;;;;;;;2.10;1.02;;;;;;;;;;5029148;28;20060;-64
2023/01/13 07:24:29;;;;;;;4.38;1.30;;;;;;;;;;5029249;28;20571;-64
2023/01/13 07:26:59;;;;;;;2.85;1.20;;;;;;;;;;5012381;28;20057;-64
2023/01/13 07:29:29;;;;;;;2.30;1.05;;;;;;;;;;4999418;28;20053;-63
2023/01/13 07:32:00;;;;;;;8.38;1.15;;;;;;;;;;5016291;28;20056;-64
2023/01/13 07:34:30;;;;;;;6.65;1.15;;;;;;;;;;5049245;28;20080;-63
2023/01/13 07:37:00;;;;;;;2.17;0.98;;;;;;;;;;5051307;28;20037;-64
2023/01/13 07:39:30;;;;;;;5.70;0.95;;;;;;;;;;5051253;28;20056;-64
2023/01/13 07:44:48;;;;;;;5.80;1.88;;;;;;;;;;5032417;28;20049;-63
2023/01/13 07:47:22;;;;;;;3.67;1.55;;;;;;;;;;5015725;28;20037;-63
2023/01/13 07:49:52;;;;;;;3.13;1.67;;;;;;;;;;5051064;28;20436;-64
2023/01/13 07:52:22;;;;;;;3.72;1.35;;;;;;;;;;5028399;28;20049;-63
2023/01/13 07:54:52;;;;;;;3.05;1.40;;;;;;;;;;4995014;28;20057;-63
2023/01/13 07:57:22;;;;;;;5.22;1.20;;;;;;;;;;5028903;28;20616;-64
2023/01/13 07:59:52;;;;;;;3.90;1.17;;;;;;;;;;5028511;28;20057;-64
2023/01/13 08:02:22;;;;;;;4.53;1.10;;;;;;;;;;5028826;28;20045;-64
2023/01/13 08:04:52;;;;;;;3.00;1.20;;;;;;;;;;5028334;28;20061;-64
2023/01/13 08:07:23;;;;;;;5.47;1.75;;;;;;;;;;4979229;28;20410;-64
2023/01/13 08:09:52;;;;;;;3.78;1.25;;;;;;;;;;5028230;28;20489;-65
2023/01/13 08:15:25;;;;;;;4.15;1.30;;;;;;;;;;4995158;28;20057;-64
2023/01/13 08:17:55;;;;;;;4.65;1.45;;;;;;;;;;5028264;28;20068;-65
2023/01/13 08:20:25;;;;;;;3.50;1.08;;;;;;;;;;5011593;28;20049;-64
2023/01/13 08:22:57;;;;;;;2.88;1.40;;;;;;;;;;4994978;28;20120;-63
2023/01/13 08:25:29;;;;;;;2.72;1.13;;;;;;;;;;5028163;28;20054;-64
2023/01/13 08:27:59;;;;;;;7.47;2.55;;;;;;;;;;5008349;28;20422;-65
2023/01/13 08:30:29;;;;;;;4.60;1.52;;;;;;;;;;5021998;28;20061;-63
2023/01/13 08:32:59;;;;;;;2.58;1.27;;;;;;;;;;5044735;28;20524;-65
2023/01/13 08:35:29;;;;;;;3.60;1.02;;;;;;;;;;5028182;28;20041;-65
2023/01/13 08:37:59;;;;;;;4.43;1.00;;;;;;;;;;5028366;28;20061;-63
2023/01/13 08:40:29;;;;;;;6.25;1.83;;;;;;;;;;5011563;28;20413;-64
2023/01/13 08:42:59;;;;;;;5.90;1.50;;;;;;;;;;5028073;28;20053;-65
2023/01/13 08:45:30;;;;;;;4.25;1.52;;;;;;;;;;4994882;28;20068;-64
2023/01/13 08:47:59;;;;;;;2.85;1.10;;;;;;;;;;5028030;28;20049;-64
2023/01/13 08:50:29;;;;;;;5.90;1.27;;;;;;;;;;5027872;28;20053;-64
2023/01/13 08:53:00;;;;;;;4.22;1.33;;;;;;;;;;4979877;28;20520;-64
2023/01/13 08:55:30;;;;;;;5.47;2.03;;;;;;;;;;5031827;28;20041;-64
2023/01/13 08:58:00;;;;;;;3.55;1.40;;;;;;;;;;5015256;28;20120;-64
2023/01/13 09:00:43;;;;;;;6.22;1.63;;;;;;;;;;4998815;28;20072;-64
2023/01/13 09:03:14;;;;;;;3.00;1.70;;;;;;;;;;5031864;28;20057;-64
2023/01/13 09:05:44;;;;;;;3.40;1.90;;;;;;;;;;5044104;28;20056;-64
2023/01/13 09:08:14;;;;;;;4.93;1.65;;;;;;;;;;5059810;28;20040;-64
2023/01/13 09:10:44;;;;;;;7.55;1.83;;;;;;;;;;5073967;28;20053;-64
2023/01/13 09:13:14;;;;;;;4.72;1.42;;;;;;;;;;5074039;28;20045;-64
2023/01/13 09:15:46;;;;;;;4.25;1.70;;;;;;;;;;5073692;28;20044;-64
2023/01/13 09:18:16;;;;;;;3.85;1.58;;;;;;;;;;5073738;28;20041;-64
2023/01/13 09:20:47;;;;;;;4.78;1.55;;;;;;;;;;5038350;28;20056;-66
2023/01/13 09:23:16;;;;;;;4.35;1.92;;;;;;;;;;5073821;28;20049;-64
2023/01/13 09:25:48;;;;;;;5.65;1.80;;;;;;;;;;5054654;28;20424;-64
2023/01/13 09:28:18;;;;;;;5.50;2.22;;;;;;;;;;5073830;28;20048;-65
2023/01/13 09:30:48;;;;;;;7.18;2.28;;;;;;;;;;5073497;28;20396;-64
2023/01/13 09:36:07;;;;;;;2.92;1.67;;;;;;;;;;5071167;28;20048;-64
2023/01/13 09:38:37;;;;;;;4.25;1.83;;;;;;;;;;5054471;28;20044;-64
2023/01/13 09:44:27;;;;;;;3.05;1.70;;;;;;;;;;5073273;28;20041;-64
2023/01/13 09:47:02;;;;;;;3.63;1.80;;;;;;;;;;5038461;28;20051;-65
2023/01/13 09:49:38;;;;;;;3.05;1.67;;;;;;;;;;5073210;28;20044;-65
2023/01/13 09:52:14;;;;;;;4.03;1.75;;;;;;;;;;5073188;28;20044;-64
2023/01/13 09:54:54;;;;;;;6.95;1.98;;;;;;;;;;5037606;28;20508;-64
2023/01/13 09:57:29;;;;;;;4.20;1.90;;;;;;;;;;5054179;28;20055;-64
2023/01/13 10:00:00;;;;;;;4.10;2.22;;;;;;;;;;5073007;28;20400;-65
2023/01/13 10:02:57;;;;;;;2.47;1.67;;;;;;;;;;5072902;28;20408;-64
2023/01/13 10:05:50;;;;;;;4.60;1.50;;;;;;;;;;5104578;28;20408;-64
2023/01/13 10:08:22;;;;;;;7.25;1.75;;;;;;;;;;5073246;28;20507;-64
2023/01/13 10:10:59;;;;;;;6.53;2.25;;;;;;;;;;5072773;28;20036;-65
2023/01/13 10:13:32;;;;;;;5.68;2.20;;;;;;;;;;5072896;28;20037;-64
2023/01/13 10:16:40;;;;;;;3.70;1.70;;;;;;;;;;5078747;28;20539;-65
2023/01/13 10:19:16;;;;;;;7.30;2.45;;;;;;;;;;5064383;28;20037;-64
2023/01/13 10:22:14;;;;;;;5.63;2.45;;;;;;;;;;5057975;28;20041;-64
2023/01/13 10:25:35;;;;;;;6.65;2.90;;;;;;;;;;5050299;28;20421;-64
2023/01/13 10:28:14;;;;;;;9.75;2.72;;;;;;;;;;5029970;28;20200;-64
2023/01/13 10:30:47;;;;;;;10.25;4.40;;;;;;;;;;4950085;28;20560;-64
2023/01/13 10:33:26;;;;;;;11.95;4.50;;;;;;;;;;5029853;28;20413;-64
2023/01/13 10:36:11;;;;;;;10.07;3.30;;;;;;;;;;5013392;28;20050;-64
2023/01/13 10:38:42;;;;;;;;;;;;;;;;;;4990939;28;20050;-65
2023/01/13 10:41:15;;;;;;;7.57;2.60;;;;;;;;;;4990389;28;20314;-65
2023/01/13 10:44:02;;;;;;;4.78;2.33;;;;;;;;;;4990133;28;20070;-65
2023/01/13 10:46:53;;;;;;;6.43;2.85;;;;;;;;;;4954939;28;20050;-65
2023/01/13 10:49:35;;;;;;;7.85;2.38;;;;;;;;;;4970459;28;20140;-65
2023/01/13 10:52:26;;;;;;;9.13;2.50;;;;;;;;;;4967400;28;20062;-66
2023/01/13 10:54:57;;;;;;;4.75;2.15;;;;;;;;;;4966010;28;20050;-65
2023/01/13 10:57:28;;;;;;;3.53;1.42;;;;;;;;;;4971033;28;20062;-65
2023/01/13 11:00:04;;;;;;;6.20;2.13;;;;;;;;;;4954045;28;20066;-65
2023/01/13 11:02:35;;;;;;;6.53;1.63;;;;;;;;;;4967261;28;20043;-65
2023/01/13 11:05:25;;;;;;;3.75;1.60;;;;;;;;;;4969987;28;20062;-65
2023/01/13 11:07:56;;;;;;;5.18;2.00;;;;;;;;;;4967953;28;20065;-65
2023/01/13 11:10:30;;;;;;;16.98;3.72;;;;;;;;;;4945406;28;20438;-65
2023/01/13 11:13:12;;;;;;;5.43;2.20;;;;;;;;;;4989870;28;20042;-65
2023/01/13 11:15:47;;;;;;;6.15;2.10;;;;;;;;;;4989326;28;20376;-65
2023/01/13 11:18:50;;;;;;;16.90;4.45;;;;;;;;;;4957328;28;20058;-65
2023/01/13 11:21:38;;;;;;;4.28;2.30;;;;;;;;;;4989185;28;20058;-65
2023/01/13 11:24:27;;;;;;;23.38;5.35;;;;;;;;;;4980916;28;20062;-66
2023/01/13 11:27:34;;;;;;;14.45;4.00;;;;;;;;;;4997074;28;20045;-66
2023/01/13 11:30:28;;;;;;;5.78;2.58;;;;;;;;;;4987712;28;20062;-65
2023/01/13 11:33:13;;;;;;;15.38;4.55;;;;;;;;;;4964943;28;20054;-64
2023/01/13 11:36:08;;;;;;;12.05;3.58;;;;;;;;;;4986922;28;20422;-65
2023/01/13 11:38:50;;;;;;;8.15;3.90;;;;;;;;;;4996317;28;20407;-65
2023/01/13 11:41:33;;;;;;;5.82;2.13;;;;;;;;;;4998669;28;20077;-65
2023/01/13 11:44:16;;;;;;;3.75;2.05;;;;;;;;;;4971132;28;20241;-65
2023/01/13 11:46:49;;;;;;;4.53;2.13;;;;;;;;;;5036832;28;20049;-65
2023/01/13 11:49:32;;;;;;;3.20;1.60;;;;;;;;;;5027926;28;20069;-65
2023/01/13 11:52:26;;;;;;;9.15;3.78;;;;;;;;;;5027722;28;20057;-65
2023/01/13 11:55:17;;;;;;;9.65;3.25;;;;;;;;;;4979049;28;20064;-64
2023/01/13 11:58:08;;;;;;;7.93;3.00;;;;;;;;;;5030689;28;20061;-65
2023/01/13 12:00:50;;;;;;;7.13;2.67;;;;;;;;;;4997096;28;20053;-64
2023/01/13 12:03:39;;;;;;;4.80;2.30;;;;;;;;;;5014262;28;20057;-65
2023/01/13 12:06:31;;;;;;;4.72;2.20;;;;;;;;;;5047442;28;20052;-65
2023/01/13 12:09:26;;;;;;;4.40;1.92;;;;;;;;;;4994858;28;20052;-66
2023/01/13 12:12:26;;;;;;;4.45;2.40;;;;;;;;;;5038976;28;20065;-65
2023/01/13 12:15:14;;;;;;;3.95;2.17;;;;;;;;;;5026901;28;20524;-65
2023/01/13 12:18:08;;;;;;;3.33;1.70;;;;;;;;;;5047890;28;20069;-65
2023/01/13 12:21:00;;;;;;;5.10;2.05;;;;;;;;;;5046940;28;20049;-65
2023/01/13 12:23:38;;;;;;;5.95;2.00;;;;;;;;;;5046719;28;20068;-66
2023/01/13 12:26:13;;;;;;;4.05;2.00;;;;;;;;;;5048222;28;20064;-65
2023/01/13 12:29:06;;;;;;;7.15;1.70;;;;;;;;;;5052494;28;20037;-65
2023/01/13 12:31:38;;;;;;;3.58;1.50;;;;;;;;;;5054177;28;20048;-71
2023/01/13 12:34:12;;;;;;;5.40;1.25;;;;;;;;;;5052046;28;20055;-63
2023/01/13 12:37:13;;;;;;;4.93;1.50;;;;;;;;;;5035835;28;21082;-62
2023/01/13 12:40:18;;;;;;;5.30;1.30;;;;;;;;;;5051746;28;20052;-61
2023/01/13 12:45:51;;;;;;;3.92;0.95;;;;;;;;;;5053920;28;20037;-62
2023/01/13 12:48:55;;;;;;;3.08;0.93;;;;;;;;;;5085697;28;20049;-62
2023/01/13 12:51:36;;;;;;;6.47;0.90;;;;;;;;;;5018589;28;20069;-65
2023/01/13 12:54:31;;;;;;;1.50;0.85;;;;;;;;;;5063061;28;20052;-65
2023/01/13 12:57:20;;;;;;;2.72;0.70;;;;;;;;;;5074010;28;20615;-67
2023/01/13 12:59:59;;;;;;;1.30;0.70;;;;;;;;;;5031125;28;20426;-67
2023/01/13 13:02:31;;;;;;;1.90;0.50;;;;;;;;;;5015009;28;20053;-67
2023/01/13 13:05:14;;;;;;;3.42;0.50;;;;;;;;;;4981781;28;20621;-67
2023/01/13 13:07:51;;;;;;;1.88;0.63;;;;;;;;;;4972029;28;20081;-67
2023/01/13 13:10:35;;;;;;;2.15;0.50;;;;;;;;;;4972478;28;20051;-66
2023/01/13 13:13:19;;;;;;;2.22;0.70;;;;;;;;;;4956200;28;20050;-66
2023/01/13 13:15:50;;;;;;;1.58;0.63;;;;;;;;;;4939988;28;20058;-64
2023/01/13 13:18:26;;;;;;;2.25;0.80;;;;;;;;;;4894165;28;20058;-66
2023/01/13 13:21:05;;;;;;;2.17;0.70;;;;;;;;;;4945886;28;20054;-67
2023/01/13 13:23:52;;;;;;;0.68;0.40;;;;;;;;;;4970770;28;20065;-65
2023/01/13 13:26:37;;;;;;;0.90;0.40;;;;;;;;;;4994162;28;20050;-67
2023/01/13 13:29:28;;;;;;;;;;;;;;;;;;4972587;28;20043;-66
2023/01/13 13:32:19;;;;;;;0.90;0.40;;;;;;;;;;4993981;28;19921;-64
2023/01/13 13:35:13;;;;;;;2.70;0.80;;;;;;;;;;5010780;28;20442;-64
2023/01/13 13:46:48;;;;;;;4.65;0.47;;;;;;;;;;5016565;28;20061;-67
2023/01/13 13:49:38;;;;;;;121.93;27.00;;;;;;;;;;5049969;28;20053;-67
2023/01/13 13:52:17;;;;;;;88.43;19.35;;;;;;;;;;5040135;28;20061;-65
2023/01/13 13:54:50;;;;;;;142.98;36.55;;;;;;;;;;5041485;28;20045;-63
2023/01/13 13:57:32;;;;;;;36.03;7.57;;;;;;;;;;5040881;28;20500;-62
2023/01/13 14:00:19;;;;;;;14.13;2.95;;;;;;;;;;5022803;28;20497;-63
2023/01/13 14:03:00;;;;;;;6.28;1.60;;;;;;;;;;5043993;28;20049;-62
2023/01/13 14:05:37;;;;;;;3.75;1.45;;;;;;;;;;5030268;28;20064;-62
2023/01/13 14:08:16;;;;;;;3.20;1.20;;;;;;;;;;4981337;28;20053;-62
2023/01/13 14:10:46;;;;;;;2.60;0.73;;;;;;;;;;5035973;28;20519;-61
2023/01/13 14:13:27;;;;;;;1.90;0.70;;;;;;;;;;5072684;28;20056;-63
2023/01/13 14:16:11;;;;;;;1.48;0.77;;;;;;;;;;5072611;28;20044;-64
2023/01/13 14:18:47;;;;;;;4.53;0.60;;;;;;;;;;5072417;28;20048;-65
2023/01/13 14:21:23;;;;;;;1.23;0.60;;;;;;;;;;4989358;28;20057;-67
2023/01/13 14:24:23;;;;;;;2.42;1.20;;;;;;;;;;5071082;28;20409;-65
2023/01/13 14:27:15;;;;;;;1.80;0.65;;;;;;;;;;4958132;28;20054;-65
2023/01/13 14:29:45;;;;;;;3.05;1.20;;;;;;;;;;4990638;28;20074;-64
2023/01/13 14:32:19;;;;;;;1.52;0.82;;;;;;;;;;4990518;28;20491;-64
2023/01/13 14:34:52;;;;;;;1.48;0.52;;;;;;;;;;4974834;28;20058;-64
2023/01/13 14:37:30;;;;;;;1.20;0.80;;;;;;;;;;4997749;28;20419;-66
2023/01/13 14:40:00;;;;;;;1.92;0.68;;;;;;;;;;4985051;28;20050;-67
2023/01/13 14:42:34;;;;;;;1.50;0.70;;;;;;;;;;4996997;28;20054;-66
2023/01/13 14:45:23;;;;;;;3.72;0.80;;;;;;;;;;4974224;28;20077;-66
2023/01/13 14:47:54;;;;;;;0.88;0.70;;;;;;;;;;4941685;28;20190;-66
2023/01/13 14:50:32;;;;;;;1.48;0.75;;;;;;;;;;4957078;28;20509;-67
2023/01/13 14:53:03;;;;;;;1.75;0.68;;;;;;;;;;4990363;28;20054;-63
2023/01/13 14:55:37;;;;;;;1.20;0.60;;;;;;;;;;4958062;28;20055;-63
2023/01/13 14:58:29;;;;;;;1.52;0.63;;;;;;;;;;4990213;28;20059;-63
2023/01/13 15:01:38;;;;;;;3.35;0.85;;;;;;;;;;4989909;28;20054;-62
2023/01/13 15:04:25;;;;;;;7.65;0.80;;;;;;;;;;5037214;28;20064;-62
2023/01/13 15:06:57;;;;;;;2.03;0.70;;;;;;;;;;5040031;28;20056;-63
2023/01/13 15:09:35;;;;;;;2.08;0.80;;;;;;;;;;5071808;28;20503;-63
2023/01/13 15:12:28;;;;;;;2.63;0.68;;;;;;;;;;4987004;28;20056;-62
2023/01/13 15:15:06;;;;;;;1.92;0.80;;;;;;;;;;5071730;28;20534;-65
2023/01/13 15:17:37;;;;;;;1.55;0.82;;;;;;;;;;5071514;28;20051;-64
2023/01/13 15:20:13;;;;;;;3.17;0.90;;;;;;;;;;5036041;28;20056;-64
2023/01/13 15:22:44;;;;;;;1.98;0.80;;;;;;;;;;4986589;28;20056;-63
2023/01/13 15:25:14;;;;;;;2.05;1.17;;;;;;;;;;5054262;28;20048;-64
2023/01/13 15:27:49;;;;;;;1.60;0.80;;;;;;;;;;5019311;28;20727;-64
2023/01/13 15:30:26;;;;;;;2.25;0.80;;;;;;;;;;5036043;28;20404;-63
2023/01/13 15:32:58;;;;;;;4.97;0.80;;;;;;;;;;5019335;28;20055;-64
2023/01/13 15:35:28;;;;;;;1.10;0.80;;;;;;;;;;5071460;28;20041;-64
2023/01/13 15:37:59;;;;;;;2.08;0.80;;;;;;;;;;5070990;28;20059;-64
2023/01/13 15:40:32;;;;;;;2.63;1.23;;;;;;;;;;5071380;28;20396;-64
2023/01/13 15:48:40;;;;;;;1.67;0.60;;;;;;;;;;5071241;28;20045;-63
2023/01/13 15:51:12;;;;;;;0.93;0.73;;;;;;;;;;5018933;28;20071;-64
2023/01/13 15:53:43;;;;;;;1.02;0.75;;;;;;;;;;5070552;28;20048;-66
2023/01/13 15:56:35;;;;;;;2.97;0.80;;;;;;;;;;5035402;28;20053;-64
2023/01/13 15:59:16;;;;;;;2.70;0.90;;;;;;;;;;5068696;28;20052;-65
2023/01/13 16:01:46;;;;;;;3.35;0.73;;;;;;;;;;5019794;28;20500;-64
2023/01/13 16:04:17;;;;;;;1.25;0.77;;;;;;;;;;5019165;28;20044;-65
2023/01/13 16:06:46;;;;;;;2.15;0.90;;;;;;;;;;5035484;28;21038;-64
2023/01/13 16:09:16;;;;;;;0.93;0.70;;;;;;;;;;5035785;28;20467;-64
2023/01/13 16:11:46;;;;;;;1.45;0.85;;;;;;;;;;5008205;28;20060;-64
2023/01/13 16:14:16;;;;;;;2.05;0.80;;;;;;;;;;5008924;28;20124;-64
2023/01/13 16:16:47;;;;;;;2.63;0.80;;;;;;;;;;5008320;28;20080;-66
2023/01/13 16:19:17;;;;;;;1.70;1.33;;;;;;;;;;5008570;28;20042;-63
2023/01/13 16:21:47;;;;;;;2.03;1.00;;;;;;;;;;5008612;28;20049;-64
2023/01/13 16:24:17;;;;;;;1.65;1.00;;;;;;;;;;5008360;28;20058;-64
2023/01/13 16:26:47;;;;;;;2.55;0.95;;;;;;;;;;5008333;28;20054;-65
2023/01/13 16:29:17;;;;;;;1.40;1.05;;;;;;;;;;5008418;28;20049;-64
2023/01/13 16:31:47;;;;;;;1.52;1.13;;;;;;;;;;5008419;28;20060;-64
2023/01/13 16:34:17;;;;;;;2.65;1.48;;;;;;;;;;5008796;28;20049;-64
2023/01/13 16:36:47;;;;;;;1.63;0.82;;;;;;;;;;4975641;28;20062;-64
2023/01/13 16:39:21;;;;;;;2.22;1.55;;;;;;;;;;4991929;28;20518;-63
2023/01/13 16:41:52;;;;;;;1.70;0.90;;;;;;;;;;5008155;28;20049;-62